Time;durP1;ratioP1;P1;durP2;ratioP2;P2;SDS_P1;SDS_P2;PMS_P1;PMS_P2;Temp;Humidity;BMP_temperature;BMP_pressure;BME280_temperature;BME280_humidity;BME280_pressure;Samples;Min_cycle;Max_cycle;Signal;HPM_P1;HPM_P2
2021/04/11 00:00:23;;;;;;;8.93;5.13;;;;;;;7.84;86.69;98621.19;5016149;28;20053;-64
2021/04/11 00:02:48;;;;;;;9.80;5.53;;;;;;;7.80;87.15;98612.84;5015217;28;20033;-63
2021/04/11 00:05:14;;;;;;;10.27;6.00;;;;;;;7.82;87.07;98602.75;5015793;28;20376;-63
2021/04/11 00:07:40;;;;;;;10.23;5.70;;;;;;;7.82;87.11;98597.41;5014830;28;20112;-63
2021/04/11 00:10:07;;;;;;;8.27;4.78;;;;;;;7.78;87.54;98588.28;5015623;28;20028;-63
2021/04/11 00:12:33;;;;;;;13.35;5.97;;;;;;;7.78;87.50;98577.59;5014778;28;20073;-63
2021/04/11 00:14:58;;;;;;;10.35;4.68;;;;;;;7.75;87.87;98578.88;5016219;28;20021;-62
2021/04/11 00:17:24;;;;;;;11.10;5.80;;;;;;;7.74;88.15;98573.81;5015541;28;20038;-62
2021/04/11 00:19:49;;;;;;;11.25;5.75;;;;;;;7.74;88.12;98565.81;5015975;28;20362;-63
2021/04/11 00:22:14;;;;;;;9.13;5.97;;;;;;;7.75;88.51;98570.09;5015482;28;20088;-62
2021/04/11 00:24:40;;;;;;;10.43;5.82;;;;;;;7.74;88.55;98568.47;5015753;28;20388;-64
2021/04/11 00:27:05;;;;;;;13.18;6.97;;;;;;;7.74;88.50;98568.47;5015511;28;20045;-62
2021/04/11 00:29:31;;;;;;;13.50;6.13;;;;;;;7.71;88.51;98553.75;5015876;28;20045;-63
2021/04/11 00:31:56;;;;;;;13.27;5.85;;;;;;;7.70;88.41;98556.66;4997665;28;20042;-63
2021/04/11 00:34:22;;;;;;;8.68;5.30;;;;;;;7.70;88.53;98543.31;5015679;28;20460;-63
2021/04/11 00:36:49;;;;;;;9.95;6.13;;;;;;;7.68;88.74;98542.75;5015124;28;20038;-62
2021/04/11 00:39:14;;;;;;;11.10;6.60;;;;;;;7.73;88.46;98540.16;4997879;28;20396;-62
2021/04/11 00:41:44;;;;;;;7.78;4.63;;;;;;;7.78;88.43;98538.38;5015261;28;20037;-62
2021/04/11 00:44:10;;;;;;;13.30;6.22;;;;;;;7.76;88.42;98535.19;5014330;28;20459;-63
2021/04/11 00:46:54;;;;;;;11.07;6.20;;;;;;;7.73;88.85;98534.81;4997354;28;20033;-63
2021/04/11 00:49:33;;;;;;;8.45;6.18;;;;;;;7.74;89.02;98531.13;5014206;28;20460;-63
2021/04/11 00:51:59;;;;;;;7.32;5.95;;;;;;;7.74;89.00;98529.25;5013874;28;20034;-63
2021/04/11 00:54:24;;;;;;;10.45;6.13;;;;;;;7.76;88.98;98527.16;5015574;28;20038;-63
2021/04/11 00:56:50;;;;;;;8.50;5.28;;;;;;;7.79;88.93;98523.22;5013661;28;20491;-63
2021/04/11 00:59:15;;;;;;;8.98;5.63;;;;;;;7.86;88.55;98529.19;5014077;28;20030;-63
2021/04/11 01:01:41;;;;;;;14.90;5.40;;;;;;;7.84;88.63;98528.63;4997284;28;20033;-63
2021/04/11 01:04:10;;;;;;;9.07;5.43;;;;;;;7.77;89.31;98522.63;5015094;28;20037;-63
2021/04/11 01:06:43;;;;;;;8.13;5.18;;;;;;;7.88;88.49;98518.28;5014611;28;20034;-63
2021/04/11 01:09:16;;;;;;;8.88;5.30;;;;;;;7.79;88.93;98512.53;4982118;28;20022;-63
2021/04/11 01:11:41;;;;;;;12.25;6.53;;;;;;;7.70;89.59;98505.97;5013058;28;20134;-64
2021/04/11 01:14:07;;;;;;;12.98;6.07;;;;;;;7.67;89.76;98507.28;5015009;28;20030;-63
2021/04/11 01:16:33;;;;;;;12.10;5.75;;;;;;;7.65;89.82;98503.22;5013196;28;20038;-63
2021/04/11 01:18:59;;;;;;;11.32;5.80;;;;;;;7.70;89.42;98498.78;5013769;28;20084;-63
2021/04/11 01:21:45;;;;;;;9.23;5.80;;;;;;;7.73;89.40;98497.50;4996801;28;20096;-66
2021/04/11 01:24:39;;;;;;;8.98;5.43;;;;;;;7.72;89.67;98498.53;5014582;28;20401;-65
2021/04/11 01:27:05;;;;;;;12.93;5.63;;;;;;;7.72;89.48;98512.69;5013176;28;20053;-63
2021/04/11 01:29:32;;;;;;;10.68;5.63;;;;;;;7.74;89.52;98499.13;5014798;28;20026;-65
2021/04/11 01:31:57;;;;;;;8.02;5.60;;;;;;;7.72;89.64;98494.00;5012854;28;20041;-65
2021/04/11 01:34:22;;;;;;;11.43;6.00;;;;;;;7.71;89.38;98500.41;5013351;28;20017;-64
2021/04/11 01:36:49;;;;;;;11.35;5.60;;;;;;;7.69;89.79;98493.69;5012651;28;20049;-65
2021/04/11 01:39:18;;;;;;;8.10;5.47;;;;;;;7.68;89.79;98492.06;5012531;28;20022;-65
2021/04/11 01:41:43;;;;;;;8.50;5.57;;;;;;;7.70;89.87;98487.31;4996699;28;20432;-65
2021/04/11 01:44:12;;;;;;;9.13;5.35;;;;;;;7.66;89.96;98491.50;5013139;28;20029;-63
2021/04/11 01:46:37;;;;;;;8.98;5.60;;;;;;;7.68;89.93;98494.72;5012774;28;20064;-63
2021/04/11 01:49:03;;;;;;;9.85;5.47;;;;;;;7.65;89.98;98489.88;4996861;28;20029;-63
2021/04/11 01:51:31;;;;;;;9.30;5.65;;;;;;;7.60;90.42;98482.59;4995506;28;20044;-63
2021/04/11 01:53:57;;;;;;;9.23;5.50;;;;;;;7.66;90.39;98486.16;4996870;28;20103;-64
2021/04/11 01:56:23;;;;;;;10.90;5.57;;;;;;;7.64;89.85;98472.25;4996346;28;20088;-63
2021/04/11 01:58:48;;;;;;;9.15;5.60;;;;;;;7.51;89.86;98463.53;5013974;28;20030;-65
2021/04/11 02:01:28;;;;;;;11.57;5.63;;;;;;;7.48;90.34;98465.88;4979924;28;20080;-65
2021/04/11 02:04:04;;;;;;;9.43;5.47;;;;;;;7.50;90.24;98467.25;5014242;28;20057;-65
2021/04/11 02:06:30;;;;;;;11.38;6.28;;;;;;;7.47;90.71;98466.94;5013513;28;20033;-64
2021/04/11 02:08:57;;;;;;;9.48;5.70;;;;;;;7.46;90.44;98474.13;4996481;28;20032;-64
2021/04/11 02:11:22;;;;;;;9.05;6.25;;;;;;;7.40;91.06;98471.59;4995822;28;20096;-65
2021/04/11 02:13:48;;;;;;;10.32;6.68;;;;;;;7.35;91.45;98465.13;5012890;28;20025;-65
2021/04/11 02:16:14;;;;;;;9.45;6.00;;;;;;;7.37;90.98;98467.56;4995929;28;20045;-65
2021/04/11 02:18:40;;;;;;;11.93;6.22;;;;;;;7.38;91.30;98463.81;5012578;28;20500;-65
2021/04/11 02:21:07;;;;;;;11.00;6.30;;;;;;;7.35;91.35;98470.44;4995732;28;20106;-65
2021/04/11 02:23:33;;;;;;;12.23;6.75;;;;;;;7.36;91.18;98471.25;4996317;28;20026;-63
2021/04/11 02:25:58;;;;;;;9.82;6.80;;;;;;;7.35;91.46;98472.31;5012215;28;20088;-63
2021/04/11 02:28:26;;;;;;;15.15;6.53;;;;;;;7.40;90.86;98461.72;4996025;28;20080;-63
2021/04/11 02:31:18;;;;;;;13.48;6.70;;;;;;;7.38;90.93;98469.16;5012063;28;20050;-63
2021/04/11 02:33:58;;;;;;;14.05;6.88;;;;;;;7.37;90.54;98467.56;5012450;28;20495;-63
2021/04/11 02:36:24;;;;;;;9.27;6.70;;;;;;;7.33;91.17;98469.88;5012063;28;20076;-63
2021/04/11 02:38:51;;;;;;;10.82;6.82;;;;;;;7.39;90.57;98473.47;4996106;28;20077;-63
2021/04/11 02:41:17;;;;;;;11.98;6.93;;;;;;;7.39;90.60;98465.47;5011799;28;20072;-63
2021/04/11 02:43:42;;;;;;;10.63;6.43;;;;;;;7.37;90.85;98462.22;5012159;28;20026;-65
2021/04/11 02:46:09;;;;;;;13.70;6.30;;;;;;;7.36;90.92;98463.25;4995342;28;20034;-63
2021/04/11 02:48:35;;;;;;;10.73;6.50;;;;;;;7.33;90.96;98456.53;5013410;28;20469;-63
2021/04/11 02:51:01;;;;;;;8.63;6.53;;;;;;;7.28;91.00;98467.13;5011725;28;20046;-63
2021/04/11 02:53:26;;;;;;;12.45;8.00;;;;;;;7.23;91.02;98458.22;5012104;28;20030;-63
2021/04/11 02:55:52;;;;;;;10.68;7.88;;;;;;;7.16;91.78;98455.69;5011724;28;20044;-63
2021/04/11 02:58:18;;;;;;;12.68;7.43;;;;;;;7.20;91.38;98456.06;4995336;28;20044;-63
2021/04/11 03:01:11;;;;;;;11.85;7.95;;;;;;;7.16;91.75;98452.25;5011521;28;20401;-63
2021/04/11 03:03:37;;;;;;;13.85;7.82;;;;;;;7.05;92.27;98446.72;5012599;28;20050;-63
2021/04/11 03:06:10;;;;;;;12.23;8.02;;;;;;;7.00;92.19;98451.97;5011538;28;20492;-64
2021/04/11 03:08:36;;;;;;;10.18;7.45;;;;;;;6.99;92.40;98455.69;5012060;28;20064;-63
2021/04/11 03:11:19;;;;;;;12.70;8.02;;;;;;;7.01;92.17;98464.22;4994875;28;20042;-64
2021/04/11 03:13:45;;;;;;;12.32;7.80;;;;;;;7.05;91.90;98459.25;5013229;28;20061;-63
2021/04/11 03:16:10;;;;;;;13.10;7.13;;;;;;;7.13;91.93;98462.31;4995221;28;20034;-63
2021/04/11 03:18:36;;;;;;;15.35;7.38;;;;;;;7.13;91.57;98451.66;5012916;28;20385;-63
2021/04/11 03:21:02;;;;;;;14.63;8.00;;;;;;;7.12;91.74;98463.38;4995179;28;20469;-63
2021/04/11 03:23:27;;;;;;;10.90;7.60;;;;;;;7.11;91.69;98459.09;5011761;28;20034;-63
2021/04/11 03:26:15;;;;;;;10.85;7.32;;;;;;;7.18;91.22;98452.81;4995079;28;20381;-63
2021/04/11 03:28:44;;;;;;;12.63;7.63;;;;;;;7.24;91.13;98462.50;5012473;28;20048;-63
2021/04/11 03:31:21;;;;;;;13.25;6.88;;;;;;;7.30;90.56;98451.69;4995491;28;20112;-63
2021/04/11 03:33:47;;;;;;;14.38;7.13;;;;;;;7.31;90.20;98448.00;5011707;28;20064;-63
2021/04/11 03:36:14;;;;;;;11.57;7.18;;;;;;;7.37;90.06;98446.22;5011234;28;20407;-63
2021/04/11 03:38:40;;;;;;;13.30;6.65;;;;;;;7.42;89.81;98448.97;4995327;28;20106;-63
2021/04/11 03:41:05;;;;;;;12.13;6.75;;;;;;;7.48;89.63;98450.66;5010765;28;20034;-63
2021/04/11 03:43:39;;;;;;;11.38;7.03;;;;;;;7.48;89.45;98447.19;4979042;28;20464;-63
2021/04/11 03:46:08;;;;;;;11.32;7.13;;;;;;;7.43;89.79;98450.59;4995189;28;20061;-65
2021/04/11 03:48:38;;;;;;;10.82;7.43;;;;;;;7.50;89.66;98456.56;4995502;28;20054;-63
2021/04/11 03:51:11;;;;;;;10.80;7.20;;;;;;;7.46;89.72;98455.47;5011349;28;20033;-64
2021/04/11 03:53:49;;;;;;;11.48;7.93;;;;;;;7.46;89.96;98457.28;5011577;28;20029;-63
2021/04/11 03:56:15;;;;;;;12.88;7.72;;;;;;;7.59;89.17;98462.34;4995893;28;20044;-63
2021/04/11 03:58:45;;;;;;;11.93;7.18;;;;;;;7.52;89.92;98461.69;5011296;28;20049;-63
2021/04/11 04:01:19;;;;;;;12.45;8.15;;;;;;;7.48;90.23;98453.34;5011026;28;20065;-64
2021/04/11 04:03:45;;;;;;;15.63;8.57;;;;;;;7.46;90.35;98459.97;4995194;28;20049;-63
2021/04/11 04:06:29;;;;;;;15.10;8.30;;;;;;;7.56;90.00;98460.97;5010982;28;20038;-63
2021/04/11 04:08:55;;;;;;;15.27;8.95;;;;;;;7.50;90.40;98456.56;5012571;28;20112;-63
2021/04/11 04:11:45;;;;;;;12.32;8.30;;;;;;;7.56;90.09;98460.97;5010682;28;20070;-64
2021/04/11 04:14:29;;;;;;;12.95;8.43;;;;;;;7.44;91.08;98457.56;5011655;28;20033;-63
2021/04/11 04:17:17;;;;;;;12.90;8.68;;;;;;;7.40;91.36;98458.28;5014363;28;20400;-64
2021/04/11 04:20:08;;;;;;;13.98;9.00;;;;;;;7.39;91.51;98460.13;5014724;28;20392;-65
2021/04/11 04:23:00;;;;;;;12.63;8.30;;;;;;;7.39;91.55;98452.13;5014808;28;20042;-63
2021/04/11 04:26:16;;;;;;;15.65;8.95;;;;;;;7.41;91.60;98462.53;5014237;28;20030;-63
2021/04/11 04:29:00;;;;;;;15.88;8.55;;;;;;;7.34;91.84;98462.72;4982477;28;20041;-63
2021/04/11 04:31:41;;;;;;;12.27;8.50;;;;;;;7.32;91.75;98451.47;5015481;28;20038;-65
2021/04/11 04:34:19;;;;;;;16.02;8.82;;;;;;;7.31;91.75;98453.34;5015587;28;20022;-65
2021/04/11 04:36:51;;;;;;;15.02;8.75;;;;;;;7.29;91.77;98452.75;5014097;28;20493;-65
2021/04/11 04:39:31;;;;;;;11.55;8.73;;;;;;;7.34;91.58;98452.84;4998926;28;20386;-64
2021/04/11 04:42:35;;;;;;;14.27;9.18;;;;;;;7.34;91.91;98454.72;5014006;28;20069;-64
2021/04/11 04:45:05;;;;;;;14.88;8.73;;;;;;;7.37;92.20;98456.91;5009690;28;20362;-64
2021/04/11 04:47:54;;;;;;;13.43;8.88;;;;;;;7.39;91.85;98459.31;5014108;28;20030;-64
2021/04/11 04:50:25;;;;;;;13.18;8.85;;;;;;;7.39;91.78;98465.47;5014904;28;20425;-64
2021/04/11 04:53:05;;;;;;;14.23;9.32;;;;;;;7.41;91.63;98468.66;5014174;28;20105;-64
2021/04/11 04:55:32;;;;;;;11.57;8.77;;;;;;;7.43;91.29;98465.78;5013863;28;20125;-64
2021/04/11 04:58:18;;;;;;;20.20;9.57;;;;;;;7.39;91.94;98465.47;4997728;28;20392;-64
2021/04/11 05:01:12;;;;;;;12.43;8.30;;;;;;;7.39;91.82;98465.47;5013668;28;20124;-65
2021/04/11 05:03:39;;;;;;;16.45;8.82;;;;;;;7.44;91.74;98467.38;5006238;28;20045;-64
2021/04/11 05:06:14;;;;;;;15.98;8.65;;;;;;;7.47;91.78;98467.72;4997067;28;20396;-64
2021/04/11 05:08:56;;;;;;;13.68;8.88;;;;;;;7.59;91.23;98469.50;5013664;28;20026;-64
2021/04/11 05:11:53;;;;;;;13.77;9.07;;;;;;;7.61;91.05;98467.41;4998743;28;20057;-64
2021/04/11 05:14:20;;;;;;;12.43;8.40;;;;;;;7.69;91.07;98456.34;5014119;28;20049;-64
2021/04/11 05:16:56;;;;;;;14.35;8.73;;;;;;;7.77;90.70;98461.28;4996965;28;20037;-64
2021/04/11 05:19:29;;;;;;;13.77;8.63;;;;;;;7.78;90.51;98462.88;5013664;28;20385;-64
2021/04/11 05:22:25;;;;;;;12.20;8.90;;;;;;;7.75;91.06;98463.38;5013178;28;20038;-64
2021/04/11 05:24:53;;;;;;;11.68;8.63;;;;;;;7.77;91.01;98471.94;5014720;28;20029;-64
2021/04/11 05:27:22;;;;;;;10.95;8.35;;;;;;;7.77;91.07;98470.09;5011856;28;20050;-64
2021/04/11 05:30:17;;;;;;;45.47;33.15;;;;;;;7.80;91.33;98481.34;5013528;28;20398;-65
2021/04/11 05:32:43;;;;;;;19.05;14.30;;;;;;;7.79;91.41;98480.53;5012993;28;20500;-64
2021/04/11 05:35:10;;;;;;;17.67;12.32;;;;;;;7.80;91.56;98494.66;5012708;28;20076;-64
2021/04/11 05:38:13;;;;;;;14.93;10.68;;;;;;;7.83;91.46;98505.66;5013127;28;20018;-64
2021/04/11 05:41:08;;;;;;;15.23;8.93;;;;;;;7.87;91.53;98522.00;5014016;28;20049;-64
2021/04/11 05:43:48;;;;;;;16.20;9.60;;;;;;;7.88;91.95;98515.59;5013216;28;20029;-64
2021/04/11 05:46:19;;;;;;;12.35;9.23;;;;;;;7.87;91.83;98522.81;4998198;28;20065;-65
2021/04/11 05:49:09;;;;;;;19.30;9.57;;;;;;;7.88;91.99;98515.59;5013026;28;20046;-65
2021/04/11 05:51:38;;;;;;;13.38;8.70;;;;;;;7.86;91.79;98526.53;5003128;28;20045;-65
2021/04/11 05:54:14;;;;;;;13.35;8.48;;;;;;;7.90;91.89;98526.84;5013174;28;20030;-65
2021/04/11 05:56:45;;;;;;;10.77;8.15;;;;;;;7.89;91.69;98528.72;4997442;28;20435;-64
2021/04/11 05:59:16;;;;;;;15.80;8.65;;;;;;;7.92;91.87;98522.88;4996604;28;20388;-64
2021/04/11 06:01:48;;;;;;;12.82;8.57;;;;;;;8.03;91.25;98517.72;4996315;28;20034;-65
2021/04/11 06:04:14;;;;;;;10.70;7.88;;;;;;;8.12;91.15;98514.38;4996392;28;20060;-64
2021/04/11 06:07:00;;;;;;;10.77;7.07;;;;;;;8.00;91.78;98517.13;5012197;28;20049;-64
2021/04/11 06:09:48;;;;;;;12.50;8.40;;;;;;;8.21;91.17;98514.78;5029183;28;20041;-64
2021/04/11 06:12:43;;;;;;;13.88;8.77;;;;;;;8.25;90.99;98515.13;5011872;28;20455;-64
2021/04/11 06:15:19;;;;;;;12.32;8.70;;;;;;;8.34;90.65;98521.66;5013444;28;20021;-64
2021/04/11 06:17:45;;;;;;;11.45;8.88;;;;;;;8.49;89.94;98521.91;5012719;28;20030;-64
2021/04/11 06:20:11;;;;;;;11.70;8.52;;;;;;;8.66;89.06;98521.84;5012035;28;20072;-64
2021/04/11 06:23:05;;;;;;;11.75;7.78;;;;;;;8.56;89.36;98524.38;5013627;28;20053;-64
2021/04/11 06:25:39;;;;;;;14.80;7.35;;;;;;;8.70;89.15;98522.97;5012112;28;20041;-64
2021/04/11 06:28:37;;;;;;;10.98;7.50;;;;;;;8.73;88.81;98519.00;5013694;28;20095;-64
2021/04/11 06:31:04;;;;;;;13.43;7.82;;;;;;;8.71;89.04;98523.78;5013044;28;20067;-64
2021/04/11 06:33:34;;;;;;;9.45;6.90;;;;;;;8.59;89.47;98526.59;5012536;28;20099;-64
2021/04/11 06:36:02;;;;;;;11.47;7.30;;;;;;;8.53;89.77;98535.56;5012510;28;20069;-64
2021/04/11 06:38:30;;;;;;;10.90;7.68;;;;;;;8.47;90.03;98539.22;5012012;28;20468;-64
2021/04/11 06:41:06;;;;;;;14.45;8.25;;;;;;;8.52;90.10;98542.78;4995628;28;20030;-64
2021/04/11 06:43:50;;;;;;;11.23;8.25;;;;;;;8.48;90.02;98536.31;5012956;28;20024;-64
2021/04/11 06:46:38;;;;;;;12.05;8.52;;;;;;;8.63;89.86;98541.03;5028031;28;20053;-64
2021/04/11 06:49:30;;;;;;;12.52;9.40;;;;;;;8.74;89.40;98539.34;5012207;28;20124;-64
2021/04/11 06:52:02;;;;;;;13.20;9.43;;;;;;;8.89;88.99;98538.72;5028221;28;20034;-64
2021/04/11 06:54:28;;;;;;;11.57;7.63;;;;;;;9.13;88.61;98539.28;5013423;28;20022;-64
2021/04/11 06:57:06;;;;;;;16.58;12.85;;;;;;;9.29;88.09;98549.91;5012625;28;20037;-64
2021/04/11 06:59:50;;;;;;;12.60;7.80;;;;;;;9.14;88.53;98549.72;5012138;28;20230;-64
2021/04/11 07:02:53;;;;;;;7.53;5.60;;;;;;;8.21;87.94;98546.81;5028037;28;20392;-64
2021/04/11 07:05:48;;;;;;;6.90;4.53;;;;;;;7.38;88.07;98548.34;5012893;28;20080;-64
2021/04/11 07:08:25;;;;;;;9.23;5.10;;;;;;;7.05;87.71;98555.97;5011939;28;20038;-64
2021/04/11 07:11:03;;;;;;;6.32;4.10;;;;;;;6.78;87.87;98563.66;5013050;28;20042;-64
2021/04/11 07:13:31;;;;;;;5.65;3.83;;;;;;;6.67;86.87;98567.16;5012083;28;20100;-64
2021/04/11 07:16:31;;;;;;;5.10;3.35;;;;;;;6.65;86.38;98572.72;5012600;28;20038;-64
2021/04/11 07:19:14;;;;;;;6.00;4.45;;;;;;;6.35;86.33;98582.69;5012958;28;20049;-64
2021/04/11 07:21:45;;;;;;;6.22;4.18;;;;;;;6.17;87.10;98595.03;5011283;28;20034;-64
2021/04/11 07:24:46;;;;;;;6.20;4.32;;;;;;;6.18;88.46;98594.00;5013263;28;20116;-64
2021/04/11 07:27:35;;;;;;;6.18;4.07;;;;;;;6.01;89.40;98599.16;5012631;28;20045;-64
2021/04/11 07:30:18;;;;;;;6.00;4.13;;;;;;;6.10;87.95;98610.28;5012037;28;20038;-64
2021/04/11 07:33:02;;;;;;;5.70;3.85;;;;;;;5.78;87.51;98610.50;5011540;28;20077;-64
2021/04/11 07:35:52;;;;;;;6.00;4.07;;;;;;;5.79;89.34;98606.00;5011291;28;20046;-64
2021/04/11 07:38:35;;;;;;;6.93;4.22;;;;;;;5.34;88.75;98603.72;5013082;28;20045;-64
2021/04/11 07:41:27;;;;;;;7.03;4.82;;;;;;;5.51;88.85;98609.25;5010974;28;20088;-64
2021/04/11 07:44:18;;;;;;;6.78;4.45;;;;;;;5.46;88.99;98611.78;4992334;28;20022;-64
2021/04/11 07:47:02;;;;;;;;;;;;;;;5.49;88.98;98611.31;4992103;28;20038;-64
2021/04/11 07:49:52;;;;;;;6.25;4.18;;;;;;;5.36;88.32;98613.09;4993826;28;20387;-64
2021/04/11 07:52:22;;;;;;;8.07;5.50;;;;;;;5.19;88.29;98606.78;4995502;28;20042;-64
2021/04/11 07:54:59;;;;;;;;;;;;;;;4.92;88.34;98622.22;4996120;28;20504;-64
2021/04/11 07:57:46;;;;;;;8.32;5.10;;;;;;;4.91;89.43;98624.03;5011522;28;19918;-64
2021/04/11 08:00:47;;;;;;;8.55;5.18;;;;;;;4.97;88.42;98623.19;4996561;28;20030;-65
2021/04/11 08:03:32;;;;;;;7.35;4.88;;;;;;;4.75;87.51;98643.22;4980801;28;20114;-64
2021/04/11 08:06:06;;;;;;;9.35;6.03;;;;;;;4.80;89.39;98648.69;4995205;28;20550;-64
2021/04/11 08:08:53;;;;;;;7.38;5.20;;;;;;;4.80;88.39;98651.34;4996769;28;20142;-64
2021/04/11 08:11:39;;;;;;;8.98;6.07;;;;;;;4.87;89.37;98651.28;4995116;28;20058;-64
2021/04/11 08:14:27;;;;;;;9.07;6.05;;;;;;;4.82;89.54;98648.44;4995521;28;20034;-65
2021/04/11 08:17:15;;;;;;;10.35;6.40;;;;;;;4.53;87.69;98672.78;4994915;28;20049;-64
2021/04/11 08:19:43;;;;;;;11.40;7.75;;;;;;;4.44;89.28;98674.13;4995121;28;20064;-64
2021/04/11 08:22:19;;;;;;;9.60;6.05;;;;;;;4.32;89.27;98678.50;5011093;28;20046;-64
2021/04/11 08:25:08;;;;;;;11.80;8.48;;;;;;;4.54;89.52;98684.22;4995321;28;20397;-64
2021/04/11 08:28:10;;;;;;;10.07;7.40;;;;;;;4.62;89.80;98683.97;4996039;28;20595;-64
2021/04/11 08:30:48;;;;;;;10.90;6.03;;;;;;;4.69;89.98;98683.91;4995882;28;20042;-64
2021/04/11 08:33:44;;;;;;;9.40;6.63;;;;;;;4.65;89.29;98678.22;4996109;28;20039;-64
2021/04/11 08:36:30;;;;;;;8.88;5.95;;;;;;;4.52;87.00;98683.66;4995791;28;20058;-65
2021/04/11 08:39:24;;;;;;;8.00;4.80;;;;;;;4.18;88.83;98680.41;4994939;28;20045;-64
2021/04/11 08:41:49;;;;;;;7.18;5.10;;;;;;;4.19;87.63;98684.69;5010812;28;20393;-64
2021/04/11 08:44:44;;;;;;;9.73;5.82;;;;;;;4.28;88.49;98690.53;4995902;28;20043;-64
2021/04/11 08:47:10;;;;;;;7.15;4.22;;;;;;;4.27;87.78;98703.00;4992288;28;20066;-64
2021/04/11 08:49:58;;;;;;;8.27;4.60;;;;;;;4.33;87.80;98709.28;4994725;28;20033;-64
2021/04/11 08:52:39;;;;;;;6.13;4.47;;;;;;;4.44;88.75;98721.03;4994099;28;20034;-64
2021/04/11 08:55:06;;;;;;;8.00;5.25;;;;;;;4.23;88.60;98728.31;4994933;28;20033;-64
2021/04/11 08:57:45;;;;;;;7.78;4.95;;;;;;;3.96;88.32;98725.00;4994480;28;20046;-64
2021/04/11 09:00:15;;;;;;;8.02;4.45;;;;;;;4.22;88.14;98728.53;4995152;28;20030;-64
2021/04/11 09:03:05;;;;;;;10.10;4.70;;;;;;;4.22;89.04;98739.13;4994491;28;20043;-64
2021/04/11 09:05:39;;;;;;;6.77;3.90;;;;;;;4.10;88.90;98726.56;4995375;28;20096;-65
2021/04/11 09:08:25;;;;;;;6.57;4.10;;;;;;;4.24;87.67;98745.06;4995688;28;20033;-64
2021/04/11 09:11:16;;;;;;;5.80;3.78;;;;;;;3.99;87.35;98745.78;4995308;28;20046;-64
2021/04/11 09:13:48;;;;;;;6.50;3.50;;;;;;;3.98;85.95;98744.16;4995419;28;20046;-64
2021/04/11 09:16:24;;;;;;;4.88;3.10;;;;;;;3.80;87.69;98749.38;4993952;28;20035;-64
2021/04/11 09:18:55;;;;;;;5.78;3.65;;;;;;;3.78;87.35;98748.75;5010402;28;20049;-64
2021/04/11 09:21:36;;;;;;;6.38;4.22;;;;;;;3.66;87.60;98752.03;5010040;28;20467;-64
2021/04/11 09:24:25;;;;;;;12.55;5.80;;;;;;;4.02;88.50;98755.16;4978633;28;20097;-64
2021/04/11 09:26:59;;;;;;;6.78;4.40;;;;;;;4.05;87.27;98749.44;4994901;28;20113;-64
2021/04/11 09:29:37;;;;;;;5.95;3.95;;;;;;;3.96;87.33;98759.47;4994078;28;20054;-64
2021/04/11 09:32:32;;;;;;;4.68;3.20;;;;;;;3.67;86.75;98772.25;4994655;28;20042;-63
2021/04/11 09:35:12;;;;;;;5.95;3.92;;;;;;;3.52;87.41;98776.97;4994202;28;20034;-64
2021/04/11 09:38:09;;;;;;;6.10;4.25;;;;;;;3.67;88.98;98774.09;5009705;28;20070;-64
2021/04/11 09:40:57;;;;;;;7.28;4.40;;;;;;;3.64;87.21;98779.78;4986023;28;20064;-64
2021/04/11 09:43:37;;;;;;;6.80;4.03;;;;;;;3.80;87.95;98784.63;5009786;28;20530;-64
2021/04/11 09:46:30;;;;;;;5.75;3.83;;;;;;;3.73;87.23;98790.97;5014072;28;20049;-64
2021/04/11 09:49:22;;;;;;;6.60;4.35;;;;;;;3.95;88.59;98787.03;5014286;28;20148;-63
2021/04/11 09:51:59;;;;;;;7.28;4.03;;;;;;;3.80;86.29;98799.72;5012938;28;20133;-64
2021/04/11 09:54:43;;;;;;;5.57;3.78;;;;;;;3.93;86.09;98798.88;5014403;28;20037;-64
2021/04/11 09:57:18;;;;;;;3.45;2.40;;;;;;;3.77;84.04;98793.00;5013798;28;20044;-64
2021/04/11 10:00:11;;;;;;;5.10;2.85;;;;;;;3.89;86.02;98788.69;5014092;28;20546;-64
2021/04/11 10:03:17;;;;;;;4.00;2.70;;;;;;;4.06;84.44;98783.69;4984257;28;20049;-64
2021/04/11 10:05:55;;;;;;;3.80;2.70;;;;;;;3.99;84.63;98785.56;4965284;28;20042;-64
2021/04/11 10:08:35;;;;;;;2.40;1.98;;;;;;;3.50;84.53;98800.22;5014117;28;20026;-64
2021/04/11 10:11:07;;;;;;;3.85;2.70;;;;;;;3.88;86.07;98795.00;5013575;28;20409;-64
2021/04/11 10:13:51;;;;;;;6.43;3.30;;;;;;;3.96;84.34;98799.25;5013256;28;20464;-64
2021/04/11 10:16:19;;;;;;;4.93;3.22;;;;;;;3.82;84.76;98795.00;5012291;28;20044;-64
2021/04/11 10:19:03;;;;;;;4.65;3.60;;;;;;;3.86;85.22;98802.34;5013965;28;20026;-64
2021/04/11 10:22:08;;;;;;;8.13;4.70;;;;;;;4.04;85.92;98800.84;5013372;28;20532;-64
2021/04/11 10:24:46;;;;;;;6.55;3.30;;;;;;;4.19;86.03;98808.53;5012520;28;20401;-64
2021/04/11 10:27:53;;;;;;;5.65;2.95;;;;;;;4.09;84.48;98808.97;5013446;28;20037;-64
2021/04/11 10:30:18;;;;;;;6.40;3.63;;;;;;;4.00;85.20;98815.56;4943842;28;20042;-64
2021/04/11 10:32:51;;;;;;;6.47;4.38;;;;;;;3.82;84.23;98834.78;4996276;28;20022;-64
2021/04/11 10:35:34;;;;;;;5.38;4.20;;;;;;;3.93;85.34;98830.69;5012012;28;20030;-64
2021/04/11 10:38:07;;;;;;;7.43;4.75;;;;;;;4.08;86.46;98829.41;5012268;28;20025;-64
2021/04/11 10:40:51;;;;;;;6.03;4.25;;;;;;;4.09;85.47;98841.66;4995739;28;20141;-64
2021/04/11 10:43:39;;;;;;;6.20;4.78;;;;;;;3.88;86.46;98836.59;5013390;28;20018;-64
2021/04/11 10:46:11;;;;;;;6.35;4.25;;;;;;;3.78;85.54;98828.28;5011684;28;20038;-64
2021/04/11 10:48:45;;;;;;;5.93;4.10;;;;;;;3.73;85.19;98838.69;5013441;28;20449;-64
2021/04/11 10:51:22;;;;;;;8.52;4.35;;;;;;;3.87;86.08;98840.28;4996158;28;20401;-64
2021/04/11 10:54:25;;;;;;;5.22;3.80;;;;;;;3.68;85.68;98850.72;5012388;28;20088;-64
2021/04/11 10:57:42;;;;;;;6.63;5.20;;;;;;;3.59;86.73;98867.84;5012784;28;20034;-64
2021/04/11 11:00:28;;;;;;;9.23;5.07;;;;;;;3.59;85.31;98865.19;4922319;29;20635;-64
2021/04/11 11:03:00;;;;;;;13.32;5.68;;;;;;;3.73;84.72;98867.84;4933620;29;20071;-64
2021/04/11 11:05:31;;;;;;;7.50;4.22;;;;;;;3.62;83.28;98874.56;4984108;28;20042;-64
2021/04/11 11:08:15;;;;;;;7.38;4.18;;;;;;;3.53;83.39;98868.69;5013210;28;20049;-64
2021/04/11 11:10:54;;;;;;;3.90;2.55;;;;;;;3.41;83.33;98870.31;5012695;28;20050;-64
2021/04/11 11:13:59;;;;;;;3.75;2.65;;;;;;;3.44;83.80;98870.75;5012986;28;20046;-64
2021/04/11 11:17:03;;;;;;;3.50;2.50;;;;;;;3.54;85.08;98880.91;5001907;28;20096;-64
2021/04/11 11:20:12;;;;;;;3.15;1.88;;;;;;;3.54;82.75;98872.94;4990144;28;20476;-64
2021/04/11 11:23:15;;;;;;;4.15;2.55;;;;;;;3.57;84.28;98883.16;4952105;28;20553;-64
2021/04/11 11:25:43;;;;;;;4.20;2.75;;;;;;;3.84;84.35;98891.06;4940242;29;20058;-64
2021/04/11 11:28:40;;;;;;;3.22;2.50;;;;;;;3.62;82.53;98893.13;5000466;28;20046;-64
2021/04/11 11:31:15;;;;;;;3.83;2.63;;;;;;;3.73;84.64;98894.34;4995599;28;20120;-64
2021/04/11 11:34:01;;;;;;;3.40;2.30;;;;;;;3.60;85.12;98890.69;5016997;28;20050;-65
2021/04/11 11:36:43;;;;;;;2.85;2.47;;;;;;;3.42;84.88;98903.72;5016451;28;20053;-64
2021/04/11 11:39:24;;;;;;;5.40;2.90;;;;;;;3.36;85.85;98915.16;5015240;28;20133;-64
2021/04/11 11:42:08;;;;;;;4.60;3.40;;;;;;;3.53;84.88;98921.69;5016094;28;20042;-64
2021/04/11 11:45:03;;;;;;;5.78;3.95;;;;;;;3.71;85.76;98926.34;5016987;28;20426;-64
2021/04/11 11:47:46;;;;;;;5.20;3.92;;;;;;;3.57;85.10;98936.16;4945871;28;20405;-64
2021/04/11 11:50:27;;;;;;;4.40;3.40;;;;;;;3.38;85.17;98936.97;5014916;28;20472;-63
2021/04/11 11:52:54;;;;;;;4.38;3.60;;;;;;;3.53;84.93;98937.59;5015591;28;20022;-63
2021/04/11 11:55:25;;;;;;;4.80;3.30;;;;;;;3.42;84.64;98946.13;4998566;28;20030;-63
2021/04/11 11:58:04;;;;;;;4.05;2.63;;;;;;;3.30;83.52;98929.22;5015092;28;20029;-63
2021/04/11 12:00:35;;;;;;;3.15;2.35;;;;;;;3.46;84.15;98942.06;5014639;28;20046;-63
2021/04/11 12:03:29;;;;;;;3.33;2.22;;;;;;;3.36;84.49;98952.25;4999277;28;20022;-63
2021/04/11 12:06:06;;;;;;;3.50;2.50;;;;;;;3.14;84.68;98952.41;4998817;28;20046;-63
2021/04/11 12:09:09;;;;;;;3.17;2.22;;;;;;;3.16;82.73;98950.38;5016179;28;20160;-63
2021/04/11 12:11:46;;;;;;;3.15;2.00;;;;;;;2.92;83.42;98950.94;5014331;28;20046;-63
2021/04/11 12:14:35;;;;;;;4.13;2.05;;;;;;;2.74;85.51;98949.66;5016103;28;20532;-64
2021/04/11 12:17:03;;;;;;;2.85;2.10;;;;;;;2.97;83.83;98948.50;5014634;28;20378;-64
2021/04/11 12:19:41;;;;;;;3.95;2.95;;;;;;;2.83;83.86;98962.75;5014975;28;20053;-64
2021/04/11 12:22:14;;;;;;;2.85;2.05;;;;;;;2.91;84.72;98952.78;5015601;28;20042;-64
2021/04/11 12:24:57;;;;;;;3.78;2.20;;;;;;;2.84;85.46;98953.75;4998609;28;20026;-64
2021/04/11 12:27:31;;;;;;;3.08;2.03;;;;;;;2.91;85.19;98965.19;5014244;28;20042;-64